sensor_id;sensor_type;location;lat;lon;timestamp;P1;P2;P0
73148;PMS7003;61346;48.930;2.266;2022-11-15T00:00:07;26.75;23.50;16.00
73148;PMS7003;61346;48.930;2.266;2022-11-15T00:02:33;21.75;21.00;15.00
73148;PMS7003;61346;48.930;2.266;2022-11-15T00:05:00;12.50;11.00;8.25
73148;PMS7003;61346;48.930;2.266;2022-11-15T00:07:25;8.00;7.00;5.75
73148;PMS7003;61346;48.930;2.266;2022-11-15T00:09:51;8.50;8.00;7.00
73148;PMS7003;61346;48.930;2.266;2022-11-15T00:12:16;9.75;8.50;7.00
73148;PMS7003;61346;48.930;2.266;2022-11-15T00:14:41;9.75;9.75;7.75
73148;PMS7003;61346;48.930;2.266;2022-11-15T00:17:07;8.50;8.25;6.75
73148;PMS7003;61346;48.930;2.266;2022-11-15T00:19:32;7.50;6.75;5.75
73148;PMS7003;61346;48.930;2.266;2022-11-15T00:21:58;7.25;6.75;5.00
73148;PMS7003;61346;48.930;2.266;2022-11-15T00:24:23;9.00;9.00;7.00
73148;PMS7003;61346;48.930;2.266;2022-11-15T00:26:48;8.00;8.00;6.00
73148;PMS7003;61346;48.930;2.266;2022-11-15T00:29:15;10.00;9.00;8.00
73148;PMS7003;61346;48.930;2.266;2022-11-15T00:31:41;8.00;8.00;7.00
73148;PMS7003;61346;48.930;2.266;2022-11-15T00:34:06;8.50;7.75;6.75
73148;PMS7003;61346;48.930;2.266;2022-11-15T00:36:32;5.25;4.25;3.00
73148;PMS7003;61346;48.930;2.266;2022-11-15T00:38:59;13.75;13.00;8.00
73148;PMS7003;61346;48.930;2.266;2022-11-15T00:41:24;9.50;8.25;6.75
73148;PMS7003;61346;48.930;2.266;2022-11-15T00:43:49;13.75;12.50;9.75
73148;PMS7003;61346;48.930;2.266;2022-11-15T00:46:15;22.25;22.25;15.00
73148;PMS7003;61346;48.930;2.266;2022-11-15T00:48:40;13.50;11.75;7.75
73148;PMS7003;61346;48.930;2.266;2022-11-15T00:51:08;16.00;14.00;9.25
73148;PMS7003;61346;48.930;2.266;2022-11-15T00:53:34;6.50;5.00;4.50
73148;PMS7003;61346;48.930;2.266;2022-11-15T00:55:59;7.75;7.75;6.00
73148;PMS7003;61346;48.930;2.266;2022-11-15T00:58:25;9.50;6.25;4.00
73148;PMS7003;61346;48.930;2.266;2022-11-15T01:00:50;7.00;7.00;5.00
73148;PMS7003;61346;48.930;2.266;2022-11-15T01:03:15;7.75;6.00;5.00
73148;PMS7003;61346;48.930;2.266;2022-11-15T01:05:41;7.00;7.00;5.00
73148;PMS7003;61346;48.930;2.266;2022-11-15T01:08:11;6.75;5.00;4.00
73148;PMS7003;61346;48.930;2.266;2022-11-15T01:10:38;5.25;5.00;4.50
73148;PMS7003;61346;48.930;2.266;2022-11-15T01:13:03;5.50;4.00;4.00
73148;PMS7003;61346;48.930;2.266;2022-11-15T01:15:29;4.00;4.00;4.00
73148;PMS7003;61346;48.930;2.266;2022-11-15T01:17:56;5.75;3.50;3.00
73148;PMS7003;61346;48.930;2.266;2022-11-15T01:20:21;4.00;4.00;3.00
73148;PMS7003;61346;48.930;2.266;2022-11-15T01:22:47;4.00;3.00;2.75
73148;PMS7003;61346;48.930;2.266;2022-11-15T01:25:15;3.25;3.00;2.25
73148;PMS7003;61346;48.930;2.266;2022-11-15T01:27:41;4.75;3.00;2.00
73148;PMS7003;61346;48.930;2.266;2022-11-15T01:30:07;4.00;3.00;2.00
73148;PMS7003;61346;48.930;2.266;2022-11-15T01:32:33;3.00;2.50;2.00
73148;PMS7003;61346;48.930;2.266;2022-11-15T01:34:58;4.00;3.00;2.00
73148;PMS7003;61346;48.930;2.266;2022-11-15T01:37:23;2.75;2.75;2.00
73148;PMS7003;61346;48.930;2.266;2022-11-15T01:39:49;3.25;2.50;2.00
73148;PMS7003;61346;48.930;2.266;2022-11-15T01:42:14;3.00;3.00;2.25
73148;PMS7003;61346;48.930;2.266;2022-11-15T01:44:41;2.75;2.75;2.00
73148;PMS7003;61346;48.930;2.266;2022-11-15T01:47:18;6.00;3.00;3.00
73148;PMS7003;61346;48.930;2.266;2022-11-15T01:52:46;4.75;3.75;3.00
73148;PMS7003;61346;48.930;2.266;2022-11-15T01:55:22;4.00;2.00;1.50
73148;PMS7003;61346;48.930;2.266;2022-11-15T01:57:54;3.00;3.00;2.25
73148;PMS7003;61346;48.930;2.266;2022-11-15T02:00:24;3.00;2.00;2.00
73148;PMS7003;61346;48.930;2.266;2022-11-15T02:02:50;3.25;2.00;2.00
73148;PMS7003;61346;48.930;2.266;2022-11-15T02:05:15;4.75;3.00;2.00
73148;PMS7003;61346;48.930;2.266;2022-11-15T02:07:41;2.00;2.00;1.00
73148;PMS7003;61346;48.930;2.266;2022-11-15T02:10:08;3.25;2.00;1.50
73148;PMS7003;61346;48.930;2.266;2022-11-15T02:12:37;3.25;2.00;1.00
73148;PMS7003;61346;48.930;2.266;2022-11-15T02:15:06;2.00;2.00;2.00
73148;PMS7003;61346;48.930;2.266;2022-11-15T02:26:19;2.00;2.00;2.00
73148;PMS7003;61346;48.930;2.266;2022-11-15T02:34:23;3.00;3.00;2.25
73148;PMS7003;61346;48.930;2.266;2022-11-15T02:37:11;3.00;2.25;2.00
73148;PMS7003;61346;48.930;2.266;2022-11-15T02:42:25;2.50;2.00;2.00
73148;PMS7003;61346;48.930;2.266;2022-11-15T02:45:13;1.50;1.50;1.00
73148;PMS7003;61346;48.930;2.266;2022-11-15T02:47:49;3.75;3.00;2.25
73148;PMS7003;61346;48.930;2.266;2022-11-15T02:50:20;2.00;2.00;2.00
73148;PMS7003;61346;48.930;2.266;2022-11-15T02:52:49;3.50;2.50;2.00
73148;PMS7003;61346;48.930;2.266;2022-11-15T02:55:34;2.00;2.00;2.00
73148;PMS7003;61346;48.930;2.266;2022-11-15T03:06:42;3.00;2.00;1.00
73148;PMS7003;61346;48.930;2.266;2022-11-15T03:09:24;2.25;2.25;2.00
73148;PMS7003;61346;48.930;2.266;2022-11-15T03:12:00;4.75;3.25;3.00
73148;PMS7003;61346;48.930;2.266;2022-11-15T03:14:36;3.50;3.00;3.00
73148;PMS7003;61346;48.930;2.266;2022-11-15T03:17:14;2.25;2.25;1.75
73148;PMS7003;61346;48.930;2.266;2022-11-15T03:19:46;4.00;2.00;2.00
73148;PMS7003;61346;48.930;2.266;2022-11-15T03:22:19;3.75;3.25;3.00
73148;PMS7003;61346;48.930;2.266;2022-11-15T03:24:47;4.00;3.00;2.00
73148;PMS7003;61346;48.930;2.266;2022-11-15T03:27:20;5.25;4.25;3.00
73148;PMS7003;61346;48.930;2.266;2022-11-15T03:29:50;5.25;3.50;2.75
73148;PMS7003;61346;48.930;2.266;2022-11-15T03:32:21;3.00;3.00;3.00
73148;PMS7003;61346;48.930;2.266;2022-11-15T03:35:09;4.25;3.00;2.25
73148;PMS7003;61346;48.930;2.266;2022-11-15T03:37:45;4.00;2.75;2.00
73148;PMS7003;61346;48.930;2.266;2022-11-15T03:40:27;4.00;3.00;2.50
73148;PMS7003;61346;48.930;2.266;2022-11-15T03:43:03;5.25;3.50;3.00
73148;PMS7003;61346;48.930;2.266;2022-11-15T03:45:46;5.75;3.00;2.75
73148;PMS7003;61346;48.930;2.266;2022-11-15T03:48:48;4.75;3.00;2.25
73148;PMS7003;61346;48.930;2.266;2022-11-15T03:51:16;4.50;2.50;2.00
73148;PMS7003;61346;48.930;2.266;2022-11-15T03:53:42;3.00;3.00;2.00
73148;PMS7003;61346;48.930;2.266;2022-11-15T03:56:08;1.75;1.00;1.00
73148;PMS7003;61346;48.930;2.266;2022-11-15T03:58:33;4.75;3.00;2.00
73148;PMS7003;61346;48.930;2.266;2022-11-15T04:00:59;4.00;2.75;2.00
73148;PMS7003;61346;48.930;2.266;2022-11-15T04:03:24;5.75;3.00;2.00
73148;PMS7003;61346;48.930;2.266;2022-11-15T04:05:50;3.25;3.25;3.00
73148;PMS7003;61346;48.930;2.266;2022-11-15T04:08:16;2.50;2.50;2.00
73148;PMS7003;61346;48.930;2.266;2022-11-15T04:10:41;2.50;2.25;2.00
73148;PMS7003;61346;48.930;2.266;2022-11-15T04:13:07;2.00;2.00;2.00
73148;PMS7003;61346;48.930;2.266;2022-11-15T04:15:32;3.00;1.00;1.00
73148;PMS7003;61346;48.930;2.266;2022-11-15T04:17:58;2.50;2.00;1.00
73148;PMS7003;61346;48.930;2.266;2022-11-15T04:20:26;2.50;2.00;1.00
73148;PMS7003;61346;48.930;2.266;2022-11-15T04:23:13;5.00;4.00;2.75
73148;PMS7003;61346;48.930;2.266;2022-11-15T04:25:59;2.00;2.00;2.00
73148;PMS7003;61346;48.930;2.266;2022-11-15T04:28:26;3.75;2.25;2.00
73148;PMS7003;61346;48.930;2.266;2022-11-15T04:30:52;3.50;2.75;2.25
73148;PMS7003;61346;48.930;2.266;2022-11-15T04:33:18;4.00;3.00;2.75
73148;PMS7003;61346;48.930;2.266;2022-11-15T04:35:44;2.25;2.00;2.00
73148;PMS7003;61346;48.930;2.266;2022-11-15T04:38:29;3.50;3.25;2.50
73148;PMS7003;61346;48.930;2.266;2022-11-15T04:40:55;2.50;2.50;2.00
73148;PMS7003;61346;48.930;2.266;2022-11-15T04:43:20;4.00;3.00;2.00
73148;PMS7003;61346;48.930;2.266;2022-11-15T04:45:48;3.50;3.00;2.00
73148;PMS7003;61346;48.930;2.266;2022-11-15T04:48:14;4.00;2.75;2.75
73148;PMS7003;61346;48.930;2.266;2022-11-15T04:50:39;2.00;2.00;2.00
73148;PMS7003;61346;48.930;2.266;2022-11-15T04:53:04;3.00;3.00;2.00
73148;PMS7003;61346;48.930;2.266;2022-11-15T04:55:30;3.00;2.00;1.00
73148;PMS7003;61346;48.930;2.266;2022-11-15T04:57:59;3.25;3.00;2.25
73148;PMS7003;61346;48.930;2.266;2022-11-15T05:00:26;3.00;3.00;2.25
73148;PMS7003;61346;48.930;2.266;2022-11-15T05:02:53;2.00;2.00;1.75
73148;PMS7003;61346;48.930;2.266;2022-11-15T05:05:37;4.25;3.00;2.00
73148;PMS7003;61346;48.930;2.266;2022-11-15T05:08:02;2.75;2.75;2.00
73148;PMS7003;61346;48.930;2.266;2022-11-15T05:10:31;4.75;3.00;2.25
73148;PMS7003;61346;48.930;2.266;2022-11-15T05:12:59;5.00;3.75;2.50
73148;PMS7003;61346;48.930;2.266;2022-11-15T05:15:25;4.00;4.00;2.75
73148;PMS7003;61346;48.930;2.266;2022-11-15T05:17:56;4.00;2.00;2.00
73148;PMS7003;61346;48.930;2.266;2022-11-15T05:20:23;0.25;0.25;0.00
73148;PMS7003;61346;48.930;2.266;2022-11-15T05:22:48;3.00;2.00;1.25
73148;PMS7003;61346;48.930;2.266;2022-11-15T05:25:14;3.00;3.00;3.00
73148;PMS7003;61346;48.930;2.266;2022-11-15T05:27:39;5.50;4.00;3.00
73148;PMS7003;61346;48.930;2.266;2022-11-15T05:30:04;4.00;2.00;1.25
73148;PMS7003;61346;48.930;2.266;2022-11-15T05:32:30;1.50;1.50;1.00
73148;PMS7003;61346;48.930;2.266;2022-11-15T05:34:56;3.25;3.00;2.25
73148;PMS7003;61346;48.930;2.266;2022-11-15T05:37:21;4.00;1.25;1.00
73148;PMS7003;61346;48.930;2.266;2022-11-15T05:39:47;4.50;4.00;3.50
73148;PMS7003;61346;48.930;2.266;2022-11-15T05:42:13;4.00;2.00;2.00
73148;PMS7003;61346;48.930;2.266;2022-11-15T05:44:41;3.25;3.00;2.00
73148;PMS7003;61346;48.930;2.266;2022-11-15T05:47:12;4.00;3.00;2.75
73148;PMS7003;61346;48.930;2.266;2022-11-15T05:49:43;3.25;3.00;2.25
73148;PMS7003;61346;48.930;2.266;2022-11-15T05:52:11;5.00;3.00;2.00
73148;PMS7003;61346;48.930;2.266;2022-11-15T05:54:41;5.25;3.00;2.00
73148;PMS7003;61346;48.930;2.266;2022-11-15T05:57:07;3.00;3.00;2.00
73148;PMS7003;61346;48.930;2.266;2022-11-15T05:59:32;4.00;4.00;3.00
73148;PMS7003;61346;48.930;2.266;2022-11-15T06:01:59;6.50;4.00;3.00
73148;PMS7003;61346;48.930;2.266;2022-11-15T06:04:25;6.25;6.25;5.00
73148;PMS7003;61346;48.930;2.266;2022-11-15T06:06:50;6.00;6.00;5.00
73148;PMS7003;61346;48.930;2.266;2022-11-15T06:09:16;8.50;5.75;5.00
73148;PMS7003;61346;48.930;2.266;2022-11-15T06:22:44;5.00;5.00;4.00
73148;PMS7003;61346;48.930;2.266;2022-11-15T06:25:12;5.00;5.00;4.00
73148;PMS7003;61346;48.930;2.266;2022-11-15T06:27:55;10.25;8.75;6.00
73148;PMS7003;61346;48.930;2.266;2022-11-15T07:58:25;3.00;3.00;3.00
73148;PMS7003;61346;48.930;2.266;2022-11-15T08:00:51;2.50;2.50;2.00
73148;PMS7003;61346;48.930;2.266;2022-11-15T08:03:16;7.25;6.00;4.00
73148;PMS7003;61346;48.930;2.266;2022-11-15T08:05:51;7.25;5.50;3.75
73148;PMS7003;61346;48.930;2.266;2022-11-15T08:08:21;5.00;4.00;4.00
73148;PMS7003;61346;48.930;2.266;2022-11-15T08:10:47;4.75;4.00;3.00
73148;PMS7003;61346;48.930;2.266;2022-11-15T08:13:12;3.50;2.25;2.00
73148;PMS7003;61346;48.930;2.266;2022-11-15T08:15:38;3.00;3.00;2.75
73148;PMS7003;61346;48.930;2.266;2022-11-15T08:18:05;4.00;4.00;3.00
73148;PMS7003;61346;48.930;2.266;2022-11-15T08:20:32;4.50;4.50;3.00
73148;PMS7003;61346;48.930;2.266;2022-11-15T08:23:00;4.50;2.00;2.00
73148;PMS7003;61346;48.930;2.266;2022-11-15T08:25:27;4.50;4.00;3.00
73148;PMS7003;61346;48.930;2.266;2022-11-15T08:27:55;4.00;3.00;3.00
73148;PMS7003;61346;48.930;2.266;2022-11-15T08:30:22;6.00;4.50;3.00
73148;PMS7003;61346;48.930;2.266;2022-11-15T08:32:49;4.00;4.00;2.50
73148;PMS7003;61346;48.930;2.266;2022-11-15T08:35:15;4.00;3.00;2.75
73148;PMS7003;61346;48.930;2.266;2022-11-15T08:37:41;5.00;5.00;4.00
73148;PMS7003;61346;48.930;2.266;2022-11-15T08:40:07;3.00;3.00;2.75
73148;PMS7003;61346;48.930;2.266;2022-11-15T08:42:33;4.25;3.50;3.00
73148;PMS7003;61346;48.930;2.266;2022-11-15T08:44:58;5.00;5.00;3.00
73148;PMS7003;61346;48.930;2.266;2022-11-15T08:47:24;4.75;2.75;1.75
73148;PMS7003;61346;48.930;2.266;2022-11-15T08:49:49;4.25;4.25;3.00
73148;PMS7003;61346;48.930;2.266;2022-11-15T08:52:15;3.75;3.75;3.00
73148;PMS7003;61346;48.930;2.266;2022-11-15T08:54:40;4.00;4.00;3.50
73148;PMS7003;61346;48.930;2.266;2022-11-15T08:57:06;3.50;3.00;3.00
73148;PMS7003;61346;48.930;2.266;2022-11-15T08:59:32;4.00;3.00;3.00
73148;PMS7003;61346;48.930;2.266;2022-11-15T09:01:57;3.25;3.25;3.00
73148;PMS7003;61346;48.930;2.266;2022-11-15T09:04:23;4.00;4.00;3.75
73148;PMS7003;61346;48.930;2.266;2022-11-15T09:06:48;6.00;5.00;4.00
73148;PMS7003;61346;48.930;2.266;2022-11-15T09:09:14;4.75;2.75;2.00
73148;PMS7003;61346;48.930;2.266;2022-11-15T09:11:39;4.50;3.25;3.00
73148;PMS7003;61346;48.930;2.266;2022-11-15T09:14:04;4.50;3.00;2.25
73148;PMS7003;61346;48.930;2.266;2022-11-15T09:16:30;4.00;4.00;3.00
73148;PMS7003;61346;48.930;2.266;2022-11-15T09:18:57;4.00;4.00;3.50
73148;PMS7003;61346;48.930;2.266;2022-11-15T09:21:23;4.75;4.75;3.50
73148;PMS7003;61346;48.930;2.266;2022-11-15T09:23:51;3.50;3.00;3.00
73148;PMS7003;61346;48.930;2.266;2022-11-15T09:26:17;3.00;3.00;2.00
73148;PMS7003;61346;48.930;2.266;2022-11-15T09:28:43;3.00;3.00;2.50
73148;PMS7003;61346;48.930;2.266;2022-11-15T09:31:08;5.25;5.00;4.00
73148;PMS7003;61346;48.930;2.266;2022-11-15T09:33:33;4.00;3.00;2.50
73148;PMS7003;61346;48.930;2.266;2022-11-15T09:36:08;3.00;3.00;3.00
73148;PMS7003;61346;48.930;2.266;2022-11-15T09:38:35;3.00;3.00;2.00
73148;PMS7003;61346;48.930;2.266;2022-11-15T09:49:03;4.50;3.25;2.25
73148;PMS7003;61346;48.930;2.266;2022-11-15T09:51:36;3.50;3.25;2.25
73148;PMS7003;61346;48.930;2.266;2022-11-15T09:54:28;2.00;2.00;1.50
73148;PMS7003;61346;48.930;2.266;2022-11-15T10:00:09;3.25;3.00;3.00
73148;PMS7003;61346;48.930;2.266;2022-11-15T10:02:57;4.00;4.00;3.00
73148;PMS7003;61346;48.930;2.266;2022-11-15T10:05:37;3.00;3.00;3.00
73148;PMS7003;61346;48.930;2.266;2022-11-15T10:10:56;6.25;4.00;3.00
73148;PMS7003;61346;48.930;2.266;2022-11-15T10:13:23;5.50;3.00;3.00
73148;PMS7003;61346;48.930;2.266;2022-11-15T10:15:53;4.50;3.00;2.50
73148;PMS7003;61346;48.930;2.266;2022-11-15T10:21:13;2.00;0.00;0.00
73148;PMS7003;61346;48.930;2.266;2022-11-15T10:23:42;4.50;3.00;2.00
73148;PMS7003;61346;48.930;2.266;2022-11-15T10:26:09;3.25;3.25;3.00
73148;PMS7003;61346;48.930;2.266;2022-11-15T10:28:39;3.75;3.00;3.00
73148;PMS7003;61346;48.930;2.266;2022-11-15T10:31:11;4.75;3.75;3.00
73148;PMS7003;61346;48.930;2.266;2022-11-15T10:33:48;4.75;4.00;3.25
73148;PMS7003;61346;48.930;2.266;2022-11-15T10:46:26;5.25;3.25;3.00
73148;PMS7003;61346;48.930;2.266;2022-11-15T10:48:52;4.75;3.50;3.00
73148;PMS7003;61346;48.930;2.266;2022-11-15T10:51:21;4.75;2.50;2.00
73148;PMS7003;61346;48.930;2.266;2022-11-15T10:53:53;3.50;3.50;3.00
73148;PMS7003;61346;48.930;2.266;2022-11-15T10:56:21;5.00;3.75;3.00
73148;PMS7003;61346;48.930;2.266;2022-11-15T10:58:53;6.75;4.75;4.00
73148;PMS7003;61346;48.930;2.266;2022-11-15T11:01:27;3.00;3.00;2.75
73148;PMS7003;61346;48.930;2.266;2022-11-15T11:04:00;6.00;4.75;4.00
73148;PMS7003;61346;48.930;2.266;2022-11-15T11:13:25;4.00;4.00;3.00
73148;PMS7003;61346;48.930;2.266;2022-11-15T11:16:47;4.00;4.00;4.00
73148;PMS7003;61346;48.930;2.266;2022-11-15T11:42:58;6.00;6.00;4.75
73148;PMS7003;61346;48.930;2.266;2022-11-15T11:52:58;7.00;7.00;6.00
73148;PMS7003;61346;48.930;2.266;2022-11-15T12:58:54;6.75;5.75;4.25
73148;PMS7003;61346;48.930;2.266;2022-11-15T13:01:06;8.00;7.00;5.00
73148;PMS7003;61346;48.930;2.266;2022-11-15T13:40:22;3.75;3.75;3.00
73148;PMS7003;61346;48.930;2.266;2022-11-15T13:48:32;20.25;16.75;11.75
73148;PMS7003;61346;48.930;2.266;2022-11-15T13:54:23;9.00;8.00;7.00
73148;PMS7003;61346;48.930;2.266;2022-11-15T14:04:13;6.00;6.00;4.75
73148;PMS7003;61346;48.930;2.266;2022-11-15T14:07:18;9.50;8.50;6.50
73148;PMS7003;61346;48.930;2.266;2022-11-15T14:24:21;5.00;5.00;4.25
73148;PMS7003;61346;48.930;2.266;2022-11-15T14:30:35;6.25;6.00;5.25
73148;PMS7003;61346;48.930;2.266;2022-11-15T14:44:04;3.00;3.00;2.00
73148;PMS7003;61346;48.930;2.266;2022-11-15T14:50:22;6.50;6.50;4.00
73148;PMS7003;61346;48.930;2.266;2022-11-15T15:02:31;6.00;6.00;5.00
73148;PMS7003;61346;48.930;2.266;2022-11-15T15:07:42;6.00;6.00;4.75
73148;PMS7003;61346;48.930;2.266;2022-11-15T15:10:08;7.00;7.00;5.75
73148;PMS7003;61346;48.930;2.266;2022-11-15T15:12:53;7.00;6.00;5.50
73148;PMS7003;61346;48.930;2.266;2022-11-15T15:39:11;7.75;6.00;5.75
73148;PMS7003;61346;48.930;2.266;2022-11-15T15:44:12;8.50;7.25;5.50
73148;PMS7003;61346;48.930;2.266;2022-11-15T15:46:40;7.00;7.00;5.00
73148;PMS7003;61346;48.930;2.266;2022-11-15T15:49:08;11.50;10.00;6.00
73148;PMS7003;61346;48.930;2.266;2022-11-15T15:51:56;9.25;7.00;5.75
73148;PMS7003;61346;48.930;2.266;2022-11-15T15:54:30;8.00;8.00;6.00
73148;PMS7003;61346;48.930;2.266;2022-11-15T15:57:06;6.75;6.75;4.75
73148;PMS7003;61346;48.930;2.266;2022-11-15T16:06:52;10.50;10.00;6.50
73148;PMS7003;61346;48.930;2.266;2022-11-15T16:09:45;10.00;9.00;7.00
73148;PMS7003;61346;48.930;2.266;2022-11-15T16:12:46;8.75;8.50;7.00
73148;PMS7003;61346;48.930;2.266;2022-11-15T16:18:47;8.25;8.25;7.00
73148;PMS7003;61346;48.930;2.266;2022-11-15T16:21:43;9.50;9.50;6.50
73148;PMS7003;61346;48.930;2.266;2022-11-15T16:24:11;9.00;8.00;7.00
73148;PMS7003;61346;48.930;2.266;2022-11-15T16:26:37;14.00;14.00;9.75
73148;PMS7003;61346;48.930;2.266;2022-11-15T16:35:02;14.00;12.00;8.75
73148;PMS7003;61346;48.930;2.266;2022-11-15T16:44:26;10.50;10.25;8.00
73148;PMS7003;61346;48.930;2.266;2022-11-15T16:50:24;30.50;27.25;16.50
73148;PMS7003;61346;48.930;2.266;2022-11-15T16:53:12;20.75;18.00;12.25
73148;PMS7003;61346;48.930;2.266;2022-11-15T17:00:09;15.00;13.25;10.00
73148;PMS7003;61346;48.930;2.266;2022-11-15T17:06:47;15.00;12.00;10.00
73148;PMS7003;61346;48.930;2.266;2022-11-15T17:09:44;13.25;12.00;9.50
73148;PMS7003;61346;48.930;2.266;2022-11-15T17:12:12;14.50;13.75;10.25
73148;PMS7003;61346;48.930;2.266;2022-11-15T17:14:40;16.00;16.00;12.00
73148;PMS7003;61346;48.930;2.266;2022-11-15T17:17:19;14.25;14.25;10.75
73148;PMS7003;61346;48.930;2.266;2022-11-15T17:20:03;18.75;16.50;12.25
73148;PMS7003;61346;48.930;2.266;2022-11-15T17:22:38;12.50;12.25;9.50
73148;PMS7003;61346;48.930;2.266;2022-11-15T17:25:03;14.00;9.00;7.50
73148;PMS7003;61346;48.930;2.266;2022-11-15T17:27:29;8.00;5.00;3.00
73148;PMS7003;61346;48.930;2.266;2022-11-15T17:29:55;13.25;13.00;10.50
73148;PMS7003;61346;48.930;2.266;2022-11-15T17:32:21;12.50;11.00;8.00
73148;PMS7003;61346;48.930;2.266;2022-11-15T17:34:47;11.25;11.00;9.25
73148;PMS7003;61346;48.930;2.266;2022-11-15T17:37:12;9.75;8.75;6.75
73148;PMS7003;61346;48.930;2.266;2022-11-15T17:39:38;12.00;11.00;8.00
73148;PMS7003;61346;48.930;2.266;2022-11-15T19:18:29;25.25;23.75;16.75
73148;PMS7003;61346;48.930;2.266;2022-11-15T19:24:28;33.00;29.50;22.00
73148;PMS7003;61346;48.930;2.266;2022-11-15T19:27:05;27.50;25.50;19.00
73148;PMS7003;61346;48.930;2.266;2022-11-15T19:29:45;25.50;23.75;18.00
73148;PMS7003;61346;48.930;2.266;2022-11-15T19:32:29;23.25;22.25;16.25
73148;PMS7003;61346;48.930;2.266;2022-11-15T19:35:02;34.75;29.25;20.00
73148;PMS7003;61346;48.930;2.266;2022-11-15T19:37:30;12.00;11.75;9.50
73148;PMS7003;61346;48.930;2.266;2022-11-15T19:39:56;14.50;9.75;8.00
73148;PMS7003;61346;48.930;2.266;2022-11-15T19:42:28;12.00;12.00;8.50
73148;PMS7003;61346;48.930;2.266;2022-11-15T19:44:53;18.75;17.75;14.50
73148;PMS7003;61346;48.930;2.266;2022-11-15T19:47:22;18.00;16.25;12.25
73148;PMS7003;61346;48.930;2.266;2022-11-15T19:49:49;19.50;18.25;13.25
73148;PMS7003;61346;48.930;2.266;2022-11-15T19:52:15;11.00;11.00;7.25
73148;PMS7003;61346;48.930;2.266;2022-11-15T19:54:43;9.25;9.25;8.00
73148;PMS7003;61346;48.930;2.266;2022-11-15T19:57:09;15.25;13.00;9.25
73148;PMS7003;61346;48.930;2.266;2022-11-15T19:59:34;7.25;7.25;5.25
73148;PMS7003;61346;48.930;2.266;2022-11-15T20:02:00;8.50;8.50;8.00
73148;PMS7003;61346;48.930;2.266;2022-11-15T20:04:28;8.25;7.25;6.25
73148;PMS7003;61346;48.930;2.266;2022-11-15T20:06:54;7.00;7.00;5.00
73148;PMS7003;61346;48.930;2.266;2022-11-15T20:09:23;11.00;7.75;6.00
73148;PMS7003;61346;48.930;2.266;2022-11-15T20:11:57;10.00;10.00;8.00
73148;PMS7003;61346;48.930;2.266;2022-11-15T20:14:23;14.25;13.75;10.25
73148;PMS7003;61346;48.930;2.266;2022-11-15T20:16:51;6.75;6.75;5.00
73148;PMS7003;61346;48.930;2.266;2022-11-15T20:19:19;30.75;26.75;19.25
73148;PMS7003;61346;48.930;2.266;2022-11-15T20:21:48;22.75;18.25;13.00
73148;PMS7003;61346;48.930;2.266;2022-11-15T20:24:32;16.75;16.00;9.50
73148;PMS7003;61346;48.930;2.266;2022-11-15T20:27:02;17.25;17.25;9.00
73148;PMS7003;61346;48.930;2.266;2022-11-15T20:30:00;24.75;22.00;16.75
73148;PMS7003;61346;48.930;2.266;2022-11-15T20:32:34;11.75;11.50;9.00
73148;PMS7003;61346;48.930;2.266;2022-11-15T20:35:00;6.75;6.25;5.50
73148;PMS7003;61346;48.930;2.266;2022-11-15T20:37:25;11.25;10.75;9.00
73148;PMS7003;61346;48.930;2.266;2022-11-15T20:39:52;10.50;9.50;8.00
73148;PMS7003;61346;48.930;2.266;2022-11-15T20:42:19;9.75;9.75;8.50
73148;PMS7003;61346;48.930;2.266;2022-11-15T20:44:50;14.00;11.75;8.00
73148;PMS7003;61346;48.930;2.266;2022-11-15T20:53:46;23.50;21.50;16.00
73148;PMS7003;61346;48.930;2.266;2022-11-15T20:56:47;16.00;14.25;9.25
73148;PMS7003;61346;48.930;2.266;2022-11-15T20:59:57;13.25;12.00;8.50
73148;PMS7003;61346;48.930;2.266;2022-11-15T21:05:31;9.25;8.50;6.75
73148;PMS7003;61346;48.930;2.266;2022-11-15T21:08:28;11.00;10.50;7.00
73148;PMS7003;61346;48.930;2.266;2022-11-15T21:11:16;10.25;8.00;6.50
73148;PMS7003;61346;48.930;2.266;2022-11-15T21:14:14;19.00;17.00;12.25
73148;PMS7003;61346;48.930;2.266;2022-11-15T21:16:39;15.25;13.25;10.50
73148;PMS7003;61346;48.930;2.266;2022-11-15T21:19:20;25.75;21.50;16.25
73148;PMS7003;61346;48.930;2.266;2022-11-15T21:25:08;6.00;6.00;5.00
73148;PMS7003;61346;48.930;2.266;2022-11-15T21:31:00;3.00;2.50;2.25
73148;PMS7003;61346;48.930;2.266;2022-11-15T21:33:52;7.00;4.75;4.00
73148;PMS7003;61346;48.930;2.266;2022-11-15T21:40:09;9.50;9.25;7.75
73148;PMS7003;61346;48.930;2.266;2022-11-15T21:42:35;11.75;11.25;8.00
73148;PMS7003;61346;48.930;2.266;2022-11-15T21:45:01;6.25;5.75;4.00
73148;PMS7003;61346;48.930;2.266;2022-11-15T21:47:29;5.50;4.00;3.00
73148;PMS7003;61346;48.930;2.266;2022-11-15T21:50:17;4.00;4.00;2.75
73148;PMS7003;61346;48.930;2.266;2022-11-15T21:52:43;5.25;5.25;4.00
73148;PMS7003;61346;48.930;2.266;2022-11-15T21:55:26;4.75;3.75;3.00
73148;PMS7003;61346;48.930;2.266;2022-11-15T22:01:12;5.00;4.00;3.00
73148;PMS7003;61346;48.930;2.266;2022-11-15T22:03:59;3.75;2.75;2.00
73148;PMS7003;61346;48.930;2.266;2022-11-15T22:06:34;4.00;3.75;2.75
73148;PMS7003;61346;48.930;2.266;2022-11-15T22:09:06;5.25;3.50;2.50
73148;PMS7003;61346;48.930;2.266;2022-11-15T22:11:32;3.75;3.75;3.00
73148;PMS7003;61346;48.930;2.266;2022-11-15T22:14:10;5.25;3.00;2.00
73148;PMS7003;61346;48.930;2.266;2022-11-15T22:16:38;3.00;3.00;2.00
73148;PMS7003;61346;48.930;2.266;2022-11-15T22:19:04;1.75;1.75;1.75
73148;PMS7003;61346;48.930;2.266;2022-11-15T22:21:29;3.50;3.25;2.50
73148;PMS7003;61346;48.930;2.266;2022-11-15T22:23:55;4.00;2.00;2.00
73148;PMS7003;61346;48.930;2.266;2022-11-15T22:26:20;2.00;2.00;1.75
73148;PMS7003;61346;48.930;2.266;2022-11-15T22:28:46;4.50;1.75;1.00
73148;PMS7003;61346;48.930;2.266;2022-11-15T22:31:11;2.75;1.75;1.00
73148;PMS7003;61346;48.930;2.266;2022-11-15T22:33:37;2.00;2.00;1.00
73148;PMS7003;61346;48.930;2.266;2022-11-15T22:36:04;1.75;1.75;1.00
73148;PMS7003;61346;48.930;2.266;2022-11-15T22:38:34;2.00;2.00;1.00
73148;PMS7003;61346;48.930;2.266;2022-11-15T22:41:01;1.25;1.00;1.00
73148;PMS7003;61346;48.930;2.266;2022-11-15T22:43:27;3.25;2.00;1.25
73148;PMS7003;61346;48.930;2.266;2022-11-15T22:45:54;2.00;1.00;1.00
73148;PMS7003;61346;48.930;2.266;2022-11-15T22:48:25;3.00;2.00;1.00
73148;PMS7003;61346;48.930;2.266;2022-11-15T22:50:53;3.00;3.00;2.00
73148;PMS7003;61346;48.930;2.266;2022-11-15T22:53:19;5.75;3.00;2.00
73148;PMS7003;61346;48.930;2.266;2022-11-15T22:55:50;3.50;2.50;1.50
73148;PMS7003;61346;48.930;2.266;2022-11-15T22:58:18;4.00;4.00;2.25
73148;PMS7003;61346;48.930;2.266;2022-11-15T23:00:48;2.00;1.00;1.00
73148;PMS7003;61346;48.930;2.266;2022-11-15T23:03:34;4.00;2.50;1.50
73148;PMS7003;61346;48.930;2.266;2022-11-15T23:06:00;2.25;2.25;2.00
73148;PMS7003;61346;48.930;2.266;2022-11-15T23:08:30;2.00;1.00;1.00
73148;PMS7003;61346;48.930;2.266;2022-11-15T23:10:57;1.25;1.25;1.00
73148;PMS7003;61346;48.930;2.266;2022-11-15T23:13:45;1.75;1.00;0.75
73148;PMS7003;61346;48.930;2.266;2022-11-15T23:16:10;2.50;2.00;1.50
73148;PMS7003;61346;48.930;2.266;2022-11-15T23:18:55;2.25;1.00;1.00
73148;PMS7003;61346;48.930;2.266;2022-11-15T23:21:26;3.00;1.75;1.00
73148;PMS7003;61346;48.930;2.266;2022-11-15T23:24:13;4.50;1.75;1.50
73148;PMS7003;61346;48.930;2.266;2022-11-15T23:26:39;2.00;1.50;1.00
73148;PMS7003;61346;48.930;2.266;2022-11-15T23:29:06;1.25;1.25;1.00
73148;PMS7003;61346;48.930;2.266;2022-11-15T23:31:32;1.75;0.50;0.25
73148;PMS7003;61346;48.930;2.266;2022-11-15T23:34:16;1.75;1.75;1.25